Historyczne dane pomiarowe

Dodano dane terminowe – wersja testowa.

Dane z okresu 1951-2019

Wersja bazy: 1.34 [2019-03-16, lista zmian], aktualizacja planowana na 2019-04-15

Dane meteo z obszaru Polski uzyskane na podstawie danych udostępnionych przez Instytut Meteorologii i Gospodarki Wodnej – Państwowy Instytut Badawczy.

 

Wybierz Datę:    

       

TemperaturaWilgotnośćWiatrCiśnienieOpadyŚniegCzas trwania zjawisk
 Stacja t tx tn tng RH VA  wxwx mslp ppp RRR   cm mm wxwxwxwxwxwxwx
1998-02-15 9.0 10.0 8.1 7.6 91.0- 8.0 3.7---- 3.5------------
1998-02-14 6.2 10.0 2.5 1.9 94.5- 8.0 2.0---- 2.1------------
1998-02-13 7.6 10.5 5.6 4.2 92.8- 8.0 2.7---- 10.7------------
1998-02-12 8.2 10.0 3.9 -0.6 63.0- 8.0 5.7---- 5.3------------
1998-02-11 3.8 10.9 -1.1 -3.9 65.5- 2.3 1.3---- 0.0------------
1998-02-10 4.6 11.9 0.9 -1.7 61.5- 2.3 2.3---- 0.0------------
1998-02-09 1.5 4.4 -1.3 -4.2 75.5- 5.7 1.0---- 0.0------------
1998-02-08 1.6 3.6 -1.5 -4.1 73.8- 8.0 3.3---- 0.9------------
1998-02-07 3.4 8.1 1.5 -2.5 76.0- 6.3 1.3---- 0.0-- 2---------
1998-02-06 0.3 2.5 -3.3 -9.5 77.0- 8.0 2.0---- 0.0-- 4---------
1998-02-05 -3.4 4.8 -9.2-14.0 70.8- 0.3 1.7---- 0.0-- 4---------
1998-02-04 -1.7 3.5 -3.9-10.5 71.8- 1.3 1.3---- 0.0-- 7---------
1998-02-03 -4.7 -1.0 -8.5-14.9 75.8- 5.7 2.7---- 1.2-- 3---------
1998-02-02-10.6 -4.8-16.4-20.9 73.0- 6.7 0.3---- 0.0-- 3---------
1998-02-01 -9.8 -4.5-12.7-18.6 69.3- 0.0 0.7---- 0.0-- 3---------
1998-01-31 -4.0 0.5 -7.6-11.9 71.0- 5.3 3.0---- 0.1-- 5---------
1998-01-30 -3.8 0.3 -7.3-11.4 73.5- 6.7 3.0---- 1.4-- 1---------
1998-01-29 -2.9 0.0 -4.4 -9.0 77.5- 4.0 2.7---- 0.0-- 2---------
1998-01-28 -5.4 -1.0 -9.0-11.5 80.3- 5.7 2.7---- 0.8------------
1998-01-27 -6.7 -2.6 -9.0 -9.4 92.5- 3.0 0.3---- 0.0------------
1998-01-26 -7.1 -4.0 -9.5-10.9 91.8- 7.7 0.7---- 0.0------------
1998-01-25 -7.1 -3.9 -9.1-10.6 88.5- 3.3 1.0---- 0.0------------
1998-01-24 -4.8 -3.1 -7.4 -8.7 88.0- 8.0 1.0---- 0.0------------
1998-01-23 -2.5 0.2 -3.7 -6.5 76.0- 0.3 3.0---- 0.0------------
1998-01-22 0.3 1.5 -0.4 -0.5 86.5- 8.0 4.7---- 0.0-- 1---------
1998-01-21 2.0 3.8 0.7 0.7 92.5- 8.0 2.0---- 6.9------------
1998-01-20 4.0 6.1 2.8 -1.5 75.5- 8.0 1.0---- 0.8------------
1998-01-19 4.1 7.6 -0.8 -4.6 56.0- 6.3 2.0---- 0.0------------
1998-01-18 1.1 6.8 -1.6 -5.3 78.0- 0.7 1.0---- 0.0------------
1998-01-17 2.9 5.0 0.6 -2.2 91.8- 7.7 1.3---- 1.6------------
1998-01-16 1.3 7.0 -2.3 -4.2 91.0- 5.0 0.3---- 0.0------------
1998-01-15 0.9 4.0 -1.4 -3.7 93.5- 5.7 0.7---- 0.0------------
1998-01-14 -1.3 0.5 -2.9 -4.5 95.8- 8.0 0.0---- 0.0------------
1998-01-13 0.4 4.2 -1.4 -3.8 95.5- 3.0 0.3---- 0.0------------
1998-01-12 2.3 7.7 -1.1 -4.0 89.5- 0.3 0.3---- 0.1------------
1998-01-11 5.8 11.4 3.2 -0.6 89.8- 3.0 1.0---- 0.0------------
1998-01-10 4.1 4.4 3.4 2.5 94.8- 8.0 1.0---- 2.6------------
1998-01-09 6.0 8.2 4.3 3.2 88.3- 8.0 2.7---- 7.3------------
1998-01-08 7.6 11.9 4.6 3.3 68.8- 4.7 3.3---- 10.2------------
1998-01-07 4.9 7.3 2.1 -0.6 74.5- 5.3 1.0---- 0.0------------
1998-01-06 5.4 8.9 1.4 -2.4 62.8- 7.0 4.7---- 3.6------------
1998-01-05 5.5 8.9 1.5 -2.7 60.0- 5.3 2.7---- 0.0------------
1998-01-04 5.5 8.3 1.2 -1.8 61.3- 3.3 3.0---- 0.0------------
1998-01-03 1.7 6.8 -1.7 -4.5 89.8- 5.3 0.7---- 4.0------------
1998-01-02 1.0 6.9 -2.5 -4.6 92.5- 4.0 0.3---- 0.0------------
1998-01-01 1.3 6.0 -1.7 -4.4 85.8- 2.3 1.0---- 0.0------------
1997-12-31 -0.3 4.9 -3.2 -4.6 90.5- 7.7 0.3---- 0.0------------
1997-12-30 1.4 3.8 -0.9 -2.2 91.0- 8.0 1.3---- 0.4------------
1997-12-29 2.6 4.1 1.3 -0.1 86.0- 7.7 1.0---- 0.0------------
1997-12-28 4.1 6.0 2.7 -1.0 80.3- 8.0 0.3---- 0.0------------
1997-12-27 6.0 9.0 3.8 -0.2 68.0- 6.7 1.7---- 0.0------------
1997-12-26 8.4 11.0 4.5 0.4 68.5- 6.7 1.7---- 0.0------------
1997-12-25 4.1 8.6 -1.0 -4.0 92.0- 6.3 1.3---- 0.8------------
1997-12-24 1.1 3.4 -0.2 -3.6 89.5- 5.3 0.7---- 1.5------------
1997-12-23 1.6 2.3 0.9 0.5 96.0- 8.0 0.3---- 0.0------------
1997-12-22 1.0 1.7 0.4 0.4 97.8- 8.0 1.0---- 0.1------------
1997-12-21 1.6 4.4 0.3 -1.1 95.8- 7.7 0.7---- 0.0------------
1997-12-20 -0.6 2.2 -2.5 -5.2 95.0- 7.3 0.7---- 1.2-- 2---------
1997-12-19 0.6 5.0 -4.3 -7.3 75.8- 6.7 1.0---- 0.0-- 3---------
1997-12-18 -7.0 -0.9-13.3-16.0 79.8- 4.0 1.0---- 0.0-- 3---------
960.4 ms

 

Źródłem pochodzenia danych jest Instytut Meteorologii i Gospodarki Wodnej – Państwowy Instytut Badawczy. Dane Instytutu Meteorologii i Gospodarki Wodnej – Państwowego Instytutu Badawczego zostały przetworzone.

Dane źródłowe można odnaleźć na stronie https://dane.imgw.pl